sensor_id;sensor_type;location;lat;lon;timestamp;temperature;humidity
3416;DHT22;1721;51.238;9.562;2022-11-15T00:00:51;14.40;93.20
3416;DHT22;1721;51.238;9.562;2022-11-15T00:03:18;14.00;93.80
3416;DHT22;1721;51.238;9.562;2022-11-15T00:05:44;13.90;93.90
3416;DHT22;1721;51.238;9.562;2022-11-15T00:08:10;13.80;93.90
3416;DHT22;1721;51.238;9.562;2022-11-15T00:10:36;13.80;94.20
3416;DHT22;1721;51.238;9.562;2022-11-15T00:13:06;13.60;94.20
3416;DHT22;1721;51.238;9.562;2022-11-15T00:15:34;13.60;94.30
3416;DHT22;1721;51.238;9.562;2022-11-15T00:18:00;13.30;94.60
3416;DHT22;1721;51.238;9.562;2022-11-15T00:20:25;13.30;94.70
3416;DHT22;1721;51.238;9.562;2022-11-15T00:22:51;13.10;95.00
3416;DHT22;1721;51.238;9.562;2022-11-15T00:25:16;13.20;94.90
3416;DHT22;1721;51.238;9.562;2022-11-15T00:27:42;13.20;95.00
3416;DHT22;1721;51.238;9.562;2022-11-15T00:30:08;13.30;94.90
3416;DHT22;1721;51.238;9.562;2022-11-15T00:32:33;13.30;94.90
3416;DHT22;1721;51.238;9.562;2022-11-15T00:34:59;13.50;94.80
3416;DHT22;1721;51.238;9.562;2022-11-15T00:37:24;13.50;94.70
3416;DHT22;1721;51.238;9.562;2022-11-15T00:39:50;13.60;94.70
3416;DHT22;1721;51.238;9.562;2022-11-15T00:42:16;13.50;94.50
3416;DHT22;1721;51.238;9.562;2022-11-15T00:44:41;13.70;94.50
3416;DHT22;1721;51.238;9.562;2022-11-15T00:47:07;13.70;94.40
3416;DHT22;1721;51.238;9.562;2022-11-15T00:49:32;13.90;94.40
3416;DHT22;1721;51.238;9.562;2022-11-15T00:51:58;14.00;94.10
3416;DHT22;1721;51.238;9.562;2022-11-15T00:54:24;14.00;94.00
3416;DHT22;1721;51.238;9.562;2022-11-15T00:56:49;13.80;93.90
3416;DHT22;1721;51.238;9.562;2022-11-15T00:59:15;13.70;94.10
3416;DHT22;1721;51.238;9.562;2022-11-15T01:01:40;13.30;94.40
3416;DHT22;1721;51.238;9.562;2022-11-15T01:04:06;13.30;94.60
3416;DHT22;1721;51.238;9.562;2022-11-15T01:06:31;13.50;94.60
3416;DHT22;1721;51.238;9.562;2022-11-15T01:08:57;13.60;94.50
3416;DHT22;1721;51.238;9.562;2022-11-15T01:11:22;13.70;94.50
3416;DHT22;1721;51.238;9.562;2022-11-15T01:13:48;13.90;94.00
3416;DHT22;1721;51.238;9.562;2022-11-15T01:16:16;13.80;93.70
3416;DHT22;1721;51.238;9.562;2022-11-15T01:18:44;13.60;93.80
3416;DHT22;1721;51.238;9.562;2022-11-15T01:21:12;13.40;94.10
3416;DHT22;1721;51.238;9.562;2022-11-15T01:23:38;13.50;94.30
3416;DHT22;1721;51.238;9.562;2022-11-15T01:26:06;13.30;94.10
3416;DHT22;1721;51.238;9.562;2022-11-15T01:28:33;13.30;94.20
3416;DHT22;1721;51.238;9.562;2022-11-15T01:31:00;13.20;94.20
3416;DHT22;1721;51.238;9.562;2022-11-15T01:33:27;13.20;94.10
3416;DHT22;1721;51.238;9.562;2022-11-15T01:35:53;12.90;94.40
3416;DHT22;1721;51.238;9.562;2022-11-15T01:38:19;13.00;94.80
3416;DHT22;1721;51.238;9.562;2022-11-15T01:40:44;13.00;94.80
3416;DHT22;1721;51.238;9.562;2022-11-15T01:45:52;13.20;94.50
3416;DHT22;1721;51.238;9.562;2022-11-15T01:48:21;13.20;94.40
3416;DHT22;1721;51.238;9.562;2022-11-15T01:50:47;13.40;94.50
3416;DHT22;1721;51.238;9.562;2022-11-15T01:53:14;13.50;94.30
3416;DHT22;1721;51.238;9.562;2022-11-15T01:55:40;13.60;94.00
3416;DHT22;1721;51.238;9.562;2022-11-15T01:58:07;13.80;93.70
3416;DHT22;1721;51.238;9.562;2022-11-15T02:00:33;13.30;94.20
3416;DHT22;1721;51.238;9.562;2022-11-15T02:02:58;13.30;93.70
3416;DHT22;1721;51.238;9.562;2022-11-15T02:05:24;13.50;94.00
3416;DHT22;1721;51.238;9.562;2022-11-15T02:07:50;13.10;94.00
3416;DHT22;1721;51.238;9.562;2022-11-15T02:10:21;13.30;94.00
3416;DHT22;1721;51.238;9.562;2022-11-15T02:12:48;13.10;93.90
3416;DHT22;1721;51.238;9.562;2022-11-15T02:15:14;13.00;94.20
3416;DHT22;1721;51.238;9.562;2022-11-15T02:25:54;12.60;94.50
3416;DHT22;1721;51.238;9.562;2022-11-15T02:39:56;12.70;94.60
3416;DHT22;1721;51.238;9.562;2022-11-15T02:42:31;12.70;94.70
3416;DHT22;1721;51.238;9.562;2022-11-15T02:45:24;12.90;94.50
3416;DHT22;1721;51.238;9.562;2022-11-15T02:47:52;12.90;94.30
3416;DHT22;1721;51.238;9.562;2022-11-15T02:50:22;12.70;94.30
3416;DHT22;1721;51.238;9.562;2022-11-15T02:52:49;12.50;94.50
3416;DHT22;1721;51.238;9.562;2022-11-15T02:55:30;12.40;94.90
3416;DHT22;1721;51.238;9.562;2022-11-15T02:58:35;12.50;94.80
3416;DHT22;1721;51.238;9.562;2022-11-15T03:06:45;12.60;94.80
3416;DHT22;1721;51.238;9.562;2022-11-15T03:09:25;12.60;94.80
3416;DHT22;1721;51.238;9.562;2022-11-15T03:12:01;12.50;94.80
3416;DHT22;1721;51.238;9.562;2022-11-15T03:14:29;12.60;94.70
3416;DHT22;1721;51.238;9.562;2022-11-15T03:17:02;12.50;95.00
3416;DHT22;1721;51.238;9.562;2022-11-15T03:19:44;12.70;94.90
3416;DHT22;1721;51.238;9.562;2022-11-15T03:22:15;12.50;94.70
3416;DHT22;1721;51.238;9.562;2022-11-15T03:24:44;12.60;95.00
3416;DHT22;1721;51.238;9.562;2022-11-15T03:27:13;12.50;94.80
3416;DHT22;1721;51.238;9.562;2022-11-15T03:29:43;12.60;94.60
3416;DHT22;1721;51.238;9.562;2022-11-15T03:32:14;12.50;94.80
3416;DHT22;1721;51.238;9.562;2022-11-15T03:34:52;12.50;94.60
3416;DHT22;1721;51.238;9.562;2022-11-15T03:37:21;12.50;94.60
3416;DHT22;1721;51.238;9.562;2022-11-15T03:39:48;12.40;94.60
3416;DHT22;1721;51.238;9.562;2022-11-15T03:42:31;12.20;95.00
3416;DHT22;1721;51.238;9.562;2022-11-15T03:45:23;11.90;95.10
3416;DHT22;1721;51.238;9.562;2022-11-15T03:47:58;12.10;95.10
3416;DHT22;1721;51.238;9.562;2022-11-15T03:50:25;12.20;94.80
3416;DHT22;1721;51.238;9.562;2022-11-15T03:52:51;12.10;94.80
3416;DHT22;1721;51.238;9.562;2022-11-15T03:55:20;12.20;94.70
3416;DHT22;1721;51.238;9.562;2022-11-15T03:57:49;12.20;94.50
3416;DHT22;1721;51.238;9.562;2022-11-15T04:00:15;12.20;94.40
3416;DHT22;1721;51.238;9.562;2022-11-15T04:02:41;12.10;94.40
3416;DHT22;1721;51.238;9.562;2022-11-15T04:05:07;12.00;94.70
3416;DHT22;1721;51.238;9.562;2022-11-15T04:07:32;11.80;94.80
3416;DHT22;1721;51.238;9.562;2022-11-15T04:09:58;11.60;95.80
3416;DHT22;1721;51.238;9.562;2022-11-15T04:12:35;11.40;96.00
3416;DHT22;1721;51.238;9.562;2022-11-15T04:15:07;11.60;95.70
3416;DHT22;1721;51.238;9.562;2022-11-15T04:20:00;11.50;95.80
3416;DHT22;1721;51.238;9.562;2022-11-15T04:22:44;11.50;95.90
3416;DHT22;1721;51.238;9.562;2022-11-15T04:25:28;11.60;95.60
3416;DHT22;1721;51.238;9.562;2022-11-15T04:27:54;11.60;95.00
3416;DHT22;1721;51.238;9.562;2022-11-15T04:30:19;11.60;95.10
3416;DHT22;1721;51.238;9.562;2022-11-15T04:32:45;11.70;95.10
3416;DHT22;1721;51.238;9.562;2022-11-15T04:35:11;11.60;95.00
3416;DHT22;1721;51.238;9.562;2022-11-15T04:37:37;11.60;95.30
3416;DHT22;1721;51.238;9.562;2022-11-15T04:40:02;11.30;96.20
3416;DHT22;1721;51.238;9.562;2022-11-15T04:42:28;11.50;96.30
3416;DHT22;1721;51.238;9.562;2022-11-15T04:44:54;11.60;95.60
3416;DHT22;1721;51.238;9.562;2022-11-15T04:47:19;11.50;95.70
3416;DHT22;1721;51.238;9.562;2022-11-15T04:49:45;11.60;95.80
3416;DHT22;1721;51.238;9.562;2022-11-15T04:52:10;11.70;95.50
3416;DHT22;1721;51.238;9.562;2022-11-15T04:54:36;11.70;95.40
3416;DHT22;1721;51.238;9.562;2022-11-15T04:57:01;11.70;95.20
3416;DHT22;1721;51.238;9.562;2022-11-15T04:59:27;11.80;95.10
3416;DHT22;1721;51.238;9.562;2022-11-15T05:01:52;11.90;95.10
3416;DHT22;1721;51.238;9.562;2022-11-15T05:04:18;11.80;94.90
3416;DHT22;1721;51.238;9.562;2022-11-15T05:06:50;11.80;95.40
3416;DHT22;1721;51.238;9.562;2022-11-15T05:09:19;11.90;95.50
3416;DHT22;1721;51.238;9.562;2022-11-15T05:11:45;12.00;95.30
3416;DHT22;1721;51.238;9.562;2022-11-15T05:14:12;12.10;95.40
3416;DHT22;1721;51.238;9.562;2022-11-15T05:16:37;12.20;95.30
3416;DHT22;1721;51.238;9.562;2022-11-15T05:19:04;12.20;95.30
3416;DHT22;1721;51.238;9.562;2022-11-15T05:21:30;12.30;95.30
3416;DHT22;1721;51.238;9.562;2022-11-15T05:23:55;12.40;95.30
3416;DHT22;1721;51.238;9.562;2022-11-15T05:26:21;12.40;95.40
3416;DHT22;1721;51.238;9.562;2022-11-15T05:28:52;12.50;95.40
3416;DHT22;1721;51.238;9.562;2022-11-15T05:31:18;12.60;95.30
3416;DHT22;1721;51.238;9.562;2022-11-15T05:33:44;12.60;95.30
3416;DHT22;1721;51.238;9.562;2022-11-15T05:36:28;12.60;95.40
3416;DHT22;1721;51.238;9.562;2022-11-15T05:38:54;12.60;95.40
3416;DHT22;1721;51.238;9.562;2022-11-15T05:41:24;12.50;95.40
3416;DHT22;1721;51.238;9.562;2022-11-15T05:43:52;12.40;95.50
3416;DHT22;1721;51.238;9.562;2022-11-15T05:46:19;12.40;95.70
3416;DHT22;1721;51.238;9.562;2022-11-15T05:48:48;12.20;95.70
3416;DHT22;1721;51.238;9.562;2022-11-15T05:51:16;12.30;95.80
3416;DHT22;1721;51.238;9.562;2022-11-15T05:53:43;12.30;95.60
3416;DHT22;1721;51.238;9.562;2022-11-15T05:56:09;12.50;95.80
3416;DHT22;1721;51.238;9.562;2022-11-15T05:58:35;12.40;95.50
3416;DHT22;1721;51.238;9.562;2022-11-15T06:01:02;12.50;95.60
3416;DHT22;1721;51.238;9.562;2022-11-15T06:03:28;12.50;95.40
3416;DHT22;1721;51.238;9.562;2022-11-15T06:05:53;12.60;95.30
3416;DHT22;1721;51.238;9.562;2022-11-15T06:08:19;12.60;94.80
3416;DHT22;1721;51.238;9.562;2022-11-15T06:10:44;12.50;95.10
3416;DHT22;1721;51.238;9.562;2022-11-15T06:13:10;12.40;95.10
3416;DHT22;1721;51.238;9.562;2022-11-15T06:15:35;12.60;94.80
3416;DHT22;1721;51.238;9.562;2022-11-15T06:18:01;12.40;94.90
3416;DHT22;1721;51.238;9.562;2022-11-15T06:20:28;12.40;94.80
3416;DHT22;1721;51.238;9.562;2022-11-15T06:23:02;12.40;94.60
3416;DHT22;1721;51.238;9.562;2022-11-15T06:25:28;12.50;94.60
3416;DHT22;1721;51.238;9.562;2022-11-15T06:27:55;12.40;94.40
3416;DHT22;1721;51.238;9.562;2022-11-15T06:30:22;12.40;94.60
3416;DHT22;1721;51.238;9.562;2022-11-15T06:32:48;12.40;94.70
3416;DHT22;1721;51.238;9.562;2022-11-15T06:35:14;12.30;94.80
3416;DHT22;1721;51.238;9.562;2022-11-15T06:37:40;12.40;94.70
3416;DHT22;1721;51.238;9.562;2022-11-15T06:40:07;12.40;94.60
3416;DHT22;1721;51.238;9.562;2022-11-15T06:42:33;12.30;94.80
3416;DHT22;1721;51.238;9.562;2022-11-15T06:44:59;12.10;95.20
3416;DHT22;1721;51.238;9.562;2022-11-15T06:47:25;12.10;95.20
3416;DHT22;1721;51.238;9.562;2022-11-15T06:49:50;12.10;95.20
3416;DHT22;1721;51.238;9.562;2022-11-15T06:52:16;12.20;95.00
3416;DHT22;1721;51.238;9.562;2022-11-15T06:54:44;12.10;94.80
3416;DHT22;1721;51.238;9.562;2022-11-15T06:57:09;12.20;94.90
3416;DHT22;1721;51.238;9.562;2022-11-15T06:59:36;11.90;95.20
3416;DHT22;1721;51.238;9.562;2022-11-15T07:02:02;11.80;95.40
3416;DHT22;1721;51.238;9.562;2022-11-15T07:04:27;11.70;95.50
3416;DHT22;1721;51.238;9.562;2022-11-15T07:06:53;11.70;95.50
3416;DHT22;1721;51.238;9.562;2022-11-15T07:09:19;11.70;95.60
3416;DHT22;1721;51.238;9.562;2022-11-15T07:11:44;11.70;95.50
3416;DHT22;1721;51.238;9.562;2022-11-15T07:14:10;11.60;95.50
3416;DHT22;1721;51.238;9.562;2022-11-15T07:16:36;11.60;95.50
3416;DHT22;1721;51.238;9.562;2022-11-15T07:19:02;11.50;95.70
3416;DHT22;1721;51.238;9.562;2022-11-15T07:21:28;11.60;95.60
3416;DHT22;1721;51.238;9.562;2022-11-15T07:23:53;11.70;95.40
3416;DHT22;1721;51.238;9.562;2022-11-15T07:26:19;11.70;95.50
3416;DHT22;1721;51.238;9.562;2022-11-15T07:28:44;11.70;95.40
3416;DHT22;1721;51.238;9.562;2022-11-15T07:31:10;11.60;95.60
3416;DHT22;1721;51.238;9.562;2022-11-15T07:33:36;11.40;95.70
3416;DHT22;1721;51.238;9.562;2022-11-15T07:36:03;11.50;95.70
3416;DHT22;1721;51.238;9.562;2022-11-15T07:38:29;11.40;95.80
3416;DHT22;1721;51.238;9.562;2022-11-15T07:40:56;11.30;96.00
3416;DHT22;1721;51.238;9.562;2022-11-15T07:43:22;11.30;96.00
3416;DHT22;1721;51.238;9.562;2022-11-15T07:45:48;11.40;96.00
3416;DHT22;1721;51.238;9.562;2022-11-15T07:48:14;11.50;95.90
3416;DHT22;1721;51.238;9.562;2022-11-15T07:50:42;11.50;96.10
3416;DHT22;1721;51.238;9.562;2022-11-15T07:53:09;11.50;96.10
3416;DHT22;1721;51.238;9.562;2022-11-15T07:55:36;11.60;96.30
3416;DHT22;1721;51.238;9.562;2022-11-15T07:58:03;11.50;96.20
3416;DHT22;1721;51.238;9.562;2022-11-15T08:00:29;11.60;96.30
3416;DHT22;1721;51.238;9.562;2022-11-15T08:03:06;11.50;96.30
3416;DHT22;1721;51.238;9.562;2022-11-15T08:05:33;11.70;96.40
3416;DHT22;1721;51.238;9.562;2022-11-15T08:07:59;11.80;96.30
3416;DHT22;1721;51.238;9.562;2022-11-15T08:10:25;11.90;96.20
3416;DHT22;1721;51.238;9.562;2022-11-15T08:13:15;12.10;96.10
3416;DHT22;1721;51.238;9.562;2022-11-15T08:15:41;12.20;95.60
3416;DHT22;1721;51.238;9.562;2022-11-15T08:18:13;12.40;95.60
3416;DHT22;1721;51.238;9.562;2022-11-15T08:20:40;12.60;95.10
3416;DHT22;1721;51.238;9.562;2022-11-15T08:23:06;12.60;95.50
3416;DHT22;1721;51.238;9.562;2022-11-15T08:25:34;12.70;94.90
3416;DHT22;1721;51.238;9.562;2022-11-15T08:28:02;12.40;95.00
3416;DHT22;1721;51.238;9.562;2022-11-15T08:30:28;12.60;95.10
3416;DHT22;1721;51.238;9.562;2022-11-15T08:32:56;12.70;94.70
3416;DHT22;1721;51.238;9.562;2022-11-15T08:35:22;12.80;94.50
3416;DHT22;1721;51.238;9.562;2022-11-15T08:37:49;13.10;94.10
3416;DHT22;1721;51.238;9.562;2022-11-15T08:40:15;13.20;93.90
3416;DHT22;1721;51.238;9.562;2022-11-15T08:42:41;13.10;93.80
3416;DHT22;1721;51.238;9.562;2022-11-15T08:45:07;13.00;94.20
3416;DHT22;1721;51.238;9.562;2022-11-15T08:47:34;13.00;94.30
3416;DHT22;1721;51.238;9.562;2022-11-15T08:49:59;13.10;94.20
3416;DHT22;1721;51.238;9.562;2022-11-15T08:52:25;13.10;94.20
3416;DHT22;1721;51.238;9.562;2022-11-15T08:54:51;13.00;94.50
3416;DHT22;1721;51.238;9.562;2022-11-15T08:57:16;12.90;94.70
3416;DHT22;1721;51.238;9.562;2022-11-15T08:59:42;13.00;94.70
3416;DHT22;1721;51.238;9.562;2022-11-15T09:02:12;13.00;94.90
3416;DHT22;1721;51.238;9.562;2022-11-15T09:04:40;13.10;95.40
3416;DHT22;1721;51.238;9.562;2022-11-15T09:07:06;13.30;95.40
3416;DHT22;1721;51.238;9.562;2022-11-15T09:09:32;13.30;94.80
3416;DHT22;1721;51.238;9.562;2022-11-15T09:11:57;13.60;95.10
3416;DHT22;1721;51.238;9.562;2022-11-15T09:14:23;13.70;94.80
3416;DHT22;1721;51.238;9.562;2022-11-15T09:16:48;13.60;94.80
3416;DHT22;1721;51.238;9.562;2022-11-15T09:19:14;13.70;94.40
3416;DHT22;1721;51.238;9.562;2022-11-15T09:21:40;13.60;94.40
3416;DHT22;1721;51.238;9.562;2022-11-15T09:24:06;13.60;94.60
3416;DHT22;1721;51.238;9.562;2022-11-15T09:26:31;13.90;94.30
3416;DHT22;1721;51.238;9.562;2022-11-15T09:28:57;14.00;94.60
3416;DHT22;1721;51.238;9.562;2022-11-15T09:31:22;14.00;93.70
3416;DHT22;1721;51.238;9.562;2022-11-15T09:33:48;13.90;93.80
3416;DHT22;1721;51.238;9.562;2022-11-15T09:36:13;13.90;94.00
3416;DHT22;1721;51.238;9.562;2022-11-15T09:38:39;14.00;94.40
3416;DHT22;1721;51.238;9.562;2022-11-15T09:49:00;14.10;94.00
3416;DHT22;1721;51.238;9.562;2022-11-15T09:51:33;14.00;93.50
3416;DHT22;1721;51.238;9.562;2022-11-15T09:56:43;14.30;93.50
3416;DHT22;1721;51.238;9.562;2022-11-15T10:04:32;14.70;93.10
3416;DHT22;1721;51.238;9.562;2022-11-15T10:07:08;14.60;93.50
3416;DHT22;1721;51.238;9.562;2022-11-15T10:09:56;14.70;93.20
3416;DHT22;1721;51.238;9.562;2022-11-15T10:12:25;14.90;93.50
3416;DHT22;1721;51.238;9.562;2022-11-15T10:15:04;14.90;93.10
3416;DHT22;1721;51.238;9.562;2022-11-15T10:20:50;15.40;93.20
3416;DHT22;1721;51.238;9.562;2022-11-15T10:23:21;15.70;92.80
3416;DHT22;1721;51.238;9.562;2022-11-15T10:25:47;15.80;92.50
3416;DHT22;1721;51.238;9.562;2022-11-15T10:28:22;15.70;92.10
3416;DHT22;1721;51.238;9.562;2022-11-15T10:30:54;15.60;92.00
3416;DHT22;1721;51.238;9.562;2022-11-15T10:33:38;15.30;92.40
3416;DHT22;1721;51.238;9.562;2022-11-15T10:41:18;15.10;92.70
3416;DHT22;1721;51.238;9.562;2022-11-15T10:43:44;15.00;92.90
3416;DHT22;1721;51.238;9.562;2022-11-15T10:46:23;15.00;93.00
3416;DHT22;1721;51.238;9.562;2022-11-15T10:48:50;15.20;93.00
3416;DHT22;1721;51.238;9.562;2022-11-15T10:51:25;15.20;92.80
3416;DHT22;1721;51.238;9.562;2022-11-15T10:53:54;15.40;92.80
3416;DHT22;1721;51.238;9.562;2022-11-15T10:56:23;15.40;92.70
3416;DHT22;1721;51.238;9.562;2022-11-15T10:58:55;15.30;92.70
3416;DHT22;1721;51.238;9.562;2022-11-15T11:01:24;15.30;92.90
3416;DHT22;1721;51.238;9.562;2022-11-15T11:04:07;15.50;92.90
3416;DHT22;1721;51.238;9.562;2022-11-15T11:06:55;15.90;92.70
3416;DHT22;1721;51.238;9.562;2022-11-15T11:11:59;15.50;92.20
3416;DHT22;1721;51.238;9.562;2022-11-15T11:14:33;15.60;92.20
3416;DHT22;1721;51.238;9.562;2022-11-15T11:19:56;15.70;92.10
3416;DHT22;1721;51.238;9.562;2022-11-15T11:28:38;15.70;92.20
3416;DHT22;1721;51.238;9.562;2022-11-15T11:31:25;15.90;92.20
3416;DHT22;1721;51.238;9.562;2022-11-15T11:37:03;15.70;92.30
3416;DHT22;1721;51.238;9.562;2022-11-15T11:45:47;16.00;91.90
3416;DHT22;1721;51.238;9.562;2022-11-15T11:53:53;16.20;91.90
3416;DHT22;1721;51.238;9.562;2022-11-15T11:56:31;16.10;91.80
3416;DHT22;1721;51.238;9.562;2022-11-15T11:59:09;16.10;92.00
3416;DHT22;1721;51.238;9.562;2022-11-15T12:01:41;16.40;92.30
3416;DHT22;1721;51.238;9.562;2022-11-15T12:04:29;16.60;91.90
3416;DHT22;1721;51.238;9.562;2022-11-15T12:09:46;16.70;91.90
3416;DHT22;1721;51.238;9.562;2022-11-15T12:12:35;16.90;91.80
3416;DHT22;1721;51.238;9.562;2022-11-15T12:17:35;17.00;91.50
3416;DHT22;1721;51.238;9.562;2022-11-15T12:20:04;17.10;91.50
3416;DHT22;1721;51.238;9.562;2022-11-15T12:22:45;16.90;91.70
3416;DHT22;1721;51.238;9.562;2022-11-15T12:30:52;16.70;91.90
3416;DHT22;1721;51.238;9.562;2022-11-15T12:33:39;16.70;92.00
3416;DHT22;1721;51.238;9.562;2022-11-15T12:36:29;16.60;92.00
3416;DHT22;1721;51.238;9.562;2022-11-15T12:39:00;16.50;91.90
3416;DHT22;1721;51.238;9.562;2022-11-15T12:41:33;16.50;92.00
3416;DHT22;1721;51.238;9.562;2022-11-15T12:44:00;16.40;91.70
3416;DHT22;1721;51.238;9.562;2022-11-15T12:49:00;16.40;92.30
3416;DHT22;1721;51.238;9.562;2022-11-15T13:02:21;16.70;91.90
3416;DHT22;1721;51.238;9.562;2022-11-15T13:04:48;16.70;91.80
3416;DHT22;1721;51.238;9.562;2022-11-15T13:30:40;16.90;92.70
3416;DHT22;1721;51.238;9.562;2022-11-15T13:33:15;17.00;92.60
3416;DHT22;1721;51.238;9.562;2022-11-15T13:35:42;16.90;92.10
3416;DHT22;1721;51.238;9.562;2022-11-15T13:38:32;16.90;90.60
3416;DHT22;1721;51.238;9.562;2022-11-15T13:41:00;16.70;91.00
3416;DHT22;1721;51.238;9.562;2022-11-15T13:43:35;16.50;90.70
3416;DHT22;1721;51.238;9.562;2022-11-15T13:48:30;16.20;90.80
3416;DHT22;1721;51.238;9.562;2022-11-15T13:50:56;16.00;90.80
3416;DHT22;1721;51.238;9.562;2022-11-15T13:53:23;15.80;91.10
3416;DHT22;1721;51.238;9.562;2022-11-15T13:55:49;15.80;91.00
3416;DHT22;1721;51.238;9.562;2022-11-15T13:58:15;15.70;91.10
3416;DHT22;1721;51.238;9.562;2022-11-15T14:00:44;15.70;91.30
3416;DHT22;1721;51.238;9.562;2022-11-15T14:05:41;15.80;91.20
3416;DHT22;1721;51.238;9.562;2022-11-15T14:08:22;15.90;90.90
3416;DHT22;1721;51.238;9.562;2022-11-15T14:11:06;15.80;90.50
3416;DHT22;1721;51.238;9.562;2022-11-15T14:13:32;15.50;91.10
3416;DHT22;1721;51.238;9.562;2022-11-15T14:18:46;15.50;90.90
3416;DHT22;1721;51.238;9.562;2022-11-15T14:21:12;15.50;91.10
3416;DHT22;1721;51.238;9.562;2022-11-15T14:23:37;15.50;91.00
3416;DHT22;1721;51.238;9.562;2022-11-15T14:26:03;15.30;91.30
3416;DHT22;1721;51.238;9.562;2022-11-15T14:28:31;15.50;91.20
3416;DHT22;1721;51.238;9.562;2022-11-15T14:30:59;15.30;91.00
3416;DHT22;1721;51.238;9.562;2022-11-15T14:35:56;15.30;91.00
3416;DHT22;1721;51.238;9.562;2022-11-15T14:38:24;15.20;91.10
3416;DHT22;1721;51.238;9.562;2022-11-15T14:40:50;15.30;91.40
3416;DHT22;1721;51.238;9.562;2022-11-15T14:43:15;15.10;91.00
3416;DHT22;1721;51.238;9.562;2022-11-15T14:45:41;15.00;91.10
3416;DHT22;1721;51.238;9.562;2022-11-15T14:48:07;14.90;91.40
3416;DHT22;1721;51.238;9.562;2022-11-15T14:50:34;14.70;91.20
3416;DHT22;1721;51.238;9.562;2022-11-15T14:53:00;14.80;91.60
3416;DHT22;1721;51.238;9.562;2022-11-15T14:55:31;14.90;91.70
3416;DHT22;1721;51.238;9.562;2022-11-15T14:57:59;14.90;91.30
3416;DHT22;1721;51.238;9.562;2022-11-15T15:00:25;14.80;91.20
3416;DHT22;1721;51.238;9.562;2022-11-15T15:02:53;14.80;91.30
3416;DHT22;1721;51.238;9.562;2022-11-15T15:05:30;14.70;91.40
3416;DHT22;1721;51.238;9.562;2022-11-15T15:07:56;14.80;91.50
3416;DHT22;1721;51.238;9.562;2022-11-15T15:10:23;14.80;91.30
3416;DHT22;1721;51.238;9.562;2022-11-15T15:12:49;14.70;91.50
3416;DHT22;1721;51.238;9.562;2022-11-15T15:15:23;14.70;91.50
3416;DHT22;1721;51.238;9.562;2022-11-15T15:17:49;14.50;91.70
3416;DHT22;1721;51.238;9.562;2022-11-15T15:20:15;14.70;91.80
3416;DHT22;1721;51.238;9.562;2022-11-15T15:22:41;14.60;91.70
3416;DHT22;1721;51.238;9.562;2022-11-15T15:25:21;14.50;91.70
3416;DHT22;1721;51.238;9.562;2022-11-15T15:27:47;14.30;91.60
3416;DHT22;1721;51.238;9.562;2022-11-15T15:30:13;14.30;92.00
3416;DHT22;1721;51.238;9.562;2022-11-15T15:32:38;14.20;91.80
3416;DHT22;1721;51.238;9.562;2022-11-15T15:35:04;14.20;91.90
3416;DHT22;1721;51.238;9.562;2022-11-15T15:37:31;14.40;92.20
3416;DHT22;1721;51.238;9.562;2022-11-15T15:39:58;14.50;91.80
3416;DHT22;1721;51.238;9.562;2022-11-15T15:42:24;14.40;91.80
3416;DHT22;1721;51.238;9.562;2022-11-15T15:44:50;14.30;91.90
3416;DHT22;1721;51.238;9.562;2022-11-15T15:47:23;14.50;91.80
3416;DHT22;1721;51.238;9.562;2022-11-15T15:49:49;14.40;92.00
3416;DHT22;1721;51.238;9.562;2022-11-15T15:52:16;14.30;91.80
3416;DHT22;1721;51.238;9.562;2022-11-15T15:54:42;14.50;91.90
3416;DHT22;1721;51.238;9.562;2022-11-15T15:57:08;14.40;91.80
3416;DHT22;1721;51.238;9.562;2022-11-15T15:59:36;14.30;91.50
3416;DHT22;1721;51.238;9.562;2022-11-15T16:02:02;14.40;91.80
3416;DHT22;1721;51.238;9.562;2022-11-15T16:04:27;14.30;91.70
3416;DHT22;1721;51.238;9.562;2022-11-15T16:06:58;14.30;91.50
3416;DHT22;1721;51.238;9.562;2022-11-15T16:09:24;14.30;92.00
3416;DHT22;1721;51.238;9.562;2022-11-15T16:12:09;14.30;91.60
3416;DHT22;1721;51.238;9.562;2022-11-15T16:14:35;14.30;91.70
3416;DHT22;1721;51.238;9.562;2022-11-15T16:17:01;14.40;91.50
3416;DHT22;1721;51.238;9.562;2022-11-15T16:19:27;14.30;91.60
3416;DHT22;1721;51.238;9.562;2022-11-15T16:21:52;14.40;91.60
3416;DHT22;1721;51.238;9.562;2022-11-15T16:24:19;14.10;91.50
3416;DHT22;1721;51.238;9.562;2022-11-15T16:26:45;14.00;91.60
3416;DHT22;1721;51.238;9.562;2022-11-15T16:29:12;14.00;91.60
3416;DHT22;1721;51.238;9.562;2022-11-15T16:31:37;14.00;91.90
3416;DHT22;1721;51.238;9.562;2022-11-15T16:34:03;14.00;91.80
3416;DHT22;1721;51.238;9.562;2022-11-15T16:36:31;14.10;91.70
3416;DHT22;1721;51.238;9.562;2022-11-15T16:38:58;14.10;91.70
3416;DHT22;1721;51.238;9.562;2022-11-15T16:41:24;14.10;91.80
3416;DHT22;1721;51.238;9.562;2022-11-15T16:43:49;14.00;91.90
3416;DHT22;1721;51.238;9.562;2022-11-15T16:46:26;13.90;92.00
3416;DHT22;1721;51.238;9.562;2022-11-15T16:48:52;13.90;92.00
3416;DHT22;1721;51.238;9.562;2022-11-15T16:51:18;14.00;92.00
3416;DHT22;1721;51.238;9.562;2022-11-15T16:53:44;14.00;92.10
3416;DHT22;1721;51.238;9.562;2022-11-15T16:56:25;14.00;92.10
3416;DHT22;1721;51.238;9.562;2022-11-15T16:58:52;13.90;92.20
3416;DHT22;1721;51.238;9.562;2022-11-15T17:01:23;13.80;92.30
3416;DHT22;1721;51.238;9.562;2022-11-15T17:03:49;13.80;92.20
3416;DHT22;1721;51.238;9.562;2022-11-15T17:06:15;13.90;92.20
3416;DHT22;1721;51.238;9.562;2022-11-15T17:08:42;13.80;92.10
3416;DHT22;1721;51.238;9.562;2022-11-15T17:11:09;13.70;92.40
3416;DHT22;1721;51.238;9.562;2022-11-15T17:13:34;13.50;92.60
3416;DHT22;1721;51.238;9.562;2022-11-15T17:16:14;13.30;92.70
3416;DHT22;1721;51.238;9.562;2022-11-15T17:18:40;13.30;92.90
3416;DHT22;1721;51.238;9.562;2022-11-15T17:21:09;13.30;92.80
3416;DHT22;1721;51.238;9.562;2022-11-15T17:23:34;13.40;92.70
3416;DHT22;1721;51.238;9.562;2022-11-15T17:26:01;13.20;92.80
3416;DHT22;1721;51.238;9.562;2022-11-15T17:28:29;13.20;92.80
3416;DHT22;1721;51.238;9.562;2022-11-15T17:30:54;13.10;93.10
3416;DHT22;1721;51.238;9.562;2022-11-15T17:33:20;13.20;93.00
3416;DHT22;1721;51.238;9.562;2022-11-15T17:35:45;13.20;92.90
3416;DHT22;1721;51.238;9.562;2022-11-15T17:38:11;13.30;92.90
3416;DHT22;1721;51.238;9.562;2022-11-15T17:40:36;13.30;92.80
3416;DHT22;1721;51.238;9.562;2022-11-15T17:43:04;13.30;92.80
3416;DHT22;1721;51.238;9.562;2022-11-15T17:45:30;13.20;92.90
3416;DHT22;1721;51.238;9.562;2022-11-15T17:47:55;12.90;93.20
3416;DHT22;1721;51.238;9.562;2022-11-15T17:50:21;12.90;93.50
3416;DHT22;1721;51.238;9.562;2022-11-15T17:52:46;12.80;93.60
3416;DHT22;1721;51.238;9.562;2022-11-15T17:55:12;12.80;93.50
3416;DHT22;1721;51.238;9.562;2022-11-15T17:57:37;12.80;93.50
3416;DHT22;1721;51.238;9.562;2022-11-15T18:00:03;12.80;93.40
3416;DHT22;1721;51.238;9.562;2022-11-15T18:02:30;12.80;93.40
3416;DHT22;1721;51.238;9.562;2022-11-15T18:04:56;12.70;93.40
3416;DHT22;1721;51.238;9.562;2022-11-15T18:07:21;12.60;93.30
3416;DHT22;1721;51.238;9.562;2022-11-15T18:09:47;12.60;93.50
3416;DHT22;1721;51.238;9.562;2022-11-15T18:12:12;12.80;93.30
3416;DHT22;1721;51.238;9.562;2022-11-15T18:14:38;12.70;93.60
3416;DHT22;1721;51.238;9.562;2022-11-15T18:17:04;12.70;93.30
3416;DHT22;1721;51.238;9.562;2022-11-15T18:19:29;12.60;93.30
3416;DHT22;1721;51.238;9.562;2022-11-15T18:21:55;12.60;93.40
3416;DHT22;1721;51.238;9.562;2022-11-15T18:24:31;12.70;93.30
3416;DHT22;1721;51.238;9.562;2022-11-15T18:26:58;12.70;93.20
3416;DHT22;1721;51.238;9.562;2022-11-15T18:29:24;12.50;93.20